Time;durP1;ratioP1;P1;durP2;ratioP2;P2;SDS_P1;SDS_P2;PMS_P1;PMS_P2;Temp;Humidity;BMP_temperature;BMP_pressure;BME280_temperature;BME280_humidity;BME280_pressure;Samples;Min_cycle;Max_cycle;Signal;HPM_P1;HPM_P2
2022/07/09 00:00:31;;;;;;;12.63;5.73;;;19.20;32.80;;;;;;5032207;28;20178;-68
2022/07/09 00:02:57;;;;;;;15.40;6.20;;;19.00;32.40;;;;;;5022634;28;20202;-68
2022/07/09 00:05:23;;;;;;;10.20;6.60;;;18.80;32.80;;;;;;5031850;28;20628;-67
2022/07/09 00:07:48;;;;;;;14.43;6.50;;;18.90;32.20;;;;;;5031895;28;20207;-70
2022/07/09 00:10:14;;;;;;;12.00;6.70;;;18.80;33.40;;;;;;5031590;28;20199;-67
2022/07/09 00:12:40;;;;;;;15.47;8.10;;;18.60;33.50;;;;;;5030300;28;20300;-67
2022/07/09 00:15:06;;;;;;;19.97;8.47;;;18.80;32.80;;;;;;5023887;28;20190;-68
2022/07/09 00:17:31;;;;;;;13.63;7.87;;;18.50;33.30;;;;;;5032884;28;20729;-67
2022/07/09 00:19:57;;;;;;;13.57;7.67;;;18.10;34.50;;;;;;5031967;28;20420;-68
2022/07/09 00:22:23;;;;;;;20.80;8.40;;;17.90;36.00;;;;;;5030272;28;20200;-68
2022/07/09 00:24:49;;;;;;;15.93;8.47;;;18.20;35.80;;;;;;5031971;28;20245;-67
2022/07/09 00:27:14;;;;;;;11.77;7.40;;;18.20;35.00;;;;;;5031769;28;20410;-68
2022/07/09 00:29:40;;;;;;;14.83;8.10;;;18.40;35.50;;;;;;5031086;28;20192;-67
2022/07/09 00:32:06;;;;;;;23.87;8.07;;;18.50;35.40;;;;;;5030042;28;20282;-67
2022/07/09 00:34:33;;;;;;;15.23;8.27;;;18.60;35.60;;;;;;5025137;28;20493;-67
2022/07/09 00:36:59;;;;;;;12.80;7.90;;;18.60;34.70;;;;;;5031459;28;20459;-67
2022/07/09 00:39:25;;;;;;;11.83;6.60;;;18.70;34.70;;;;;;5031708;28;20469;-67
2022/07/09 00:42:00;;;;;;;9.20;6.00;;;18.60;34.80;;;;;;5030436;28;20444;-67
2022/07/09 00:44:26;;;;;;;9.70;6.67;;;18.60;35.40;;;;;;5030026;28;20528;-67
2022/07/09 00:46:51;;;;;;;17.87;6.17;;;18.90;34.00;;;;;;5032278;28;20569;-69
2022/07/09 00:49:17;;;;;;;14.50;6.33;;;18.70;34.10;;;;;;5031309;28;20176;-68
2022/07/09 00:51:43;;;;;;;9.43;6.50;;;21.40;36.60;;;;;;5030906;28;20285;-67
2022/07/09 00:54:09;;;;;;;17.83;5.87;;;18.50;34.90;;;;;;5030590;28;20195;-67
2022/07/09 00:56:34;;;;;;;12.47;6.83;;;18.40;34.30;;;;;;5030421;28;20289;-68
2022/07/09 00:59:01;;;;;;;16.90;6.30;;;18.30;35.30;;;;;;5031685;28;20188;-68
2022/07/09 01:01:27;;;;;;;8.17;5.70;;;18.30;34.70;;;;;;5030261;28;20176;-67
2022/07/09 01:03:52;;;;;;;11.60;6.20;;;18.20;34.20;;;;;;5021543;28;20431;-68
2022/07/09 01:06:18;;;;;;;10.93;6.20;;;18.40;34.80;;;;;;5031082;28;20180;-69
2022/07/09 01:08:44;;;;;;;7.83;5.50;;;18.30;34.90;;;;;;5032008;28;20684;-67
2022/07/09 01:11:10;;;;;;;12.70;6.07;;;18.20;35.70;;;;;;5030870;28;20178;-68
2022/07/09 01:13:35;;;;;;;10.60;5.50;;;18.10;36.20;;;;;;5030716;28;20942;-68
2022/07/09 01:16:01;;;;;;;17.17;5.77;;;18.40;32.90;;;;;;5030124;28;20192;-68
2022/07/09 01:18:26;;;;;;;10.17;5.50;;;18.40;34.10;;;;;;5031644;28;20172;-68
2022/07/09 01:20:52;;;;;;;11.47;6.10;;;18.60;33.50;;;;;;5029210;28;20639;-68
2022/07/09 01:23:18;;;;;;;10.23;5.70;;;18.80;32.10;;;;;;5030589;28;20277;-67
2022/07/09 01:25:44;;;;;;;12.03;5.47;;;18.60;32.90;;;;;;5029009;28;20204;-67
2022/07/09 01:28:10;;;;;;;10.20;6.00;;;18.40;33.90;;;;;;5030729;28;20910;-68
2022/07/09 01:30:37;;;;;;;8.67;5.80;;;18.60;33.30;;;;;;5031973;28;20184;-67
2022/07/09 01:33:03;;;;;;;10.93;6.43;;;18.70;33.80;;;;;;5029938;28;20495;-68
2022/07/09 01:35:29;;;;;;;8.50;5.60;;;18.40;34.40;;;;;;5029562;28;20411;-67
2022/07/09 01:37:55;;;;;;;11.00;5.90;;;18.40;36.00;;;;;;5030633;28;20985;-68
2022/07/09 01:40:22;;;;;;;14.77;6.20;;;18.30;34.90;;;;;;5031771;28;20423;-68
2022/07/09 01:42:48;;;;;;;12.83;5.83;;;18.10;34.90;;;;;;5012571;28;20471;-67
2022/07/09 01:45:14;;;;;;;14.03;6.00;;;18.00;35.50;;;;;;5021799;28;20431;-68
2022/07/09 01:47:40;;;;;;;14.97;6.80;;;17.90;35.80;;;;;;5029671;28;20954;-67
2022/07/09 01:50:07;;;;;;;13.03;6.03;;;18.10;35.80;;;;;;5030842;28;20423;-68
2022/07/09 01:52:32;;;;;;;13.63;6.13;;;17.90;36.80;;;;;;5012573;28;20838;-68
2022/07/09 01:54:58;;;;;;;9.77;5.83;;;17.90;36.30;;;;;;5033586;28;20423;-67
2022/07/09 01:57:24;;;;;;;12.43;5.90;;;17.80;36.60;;;;;;5033698;28;20223;-67
2022/07/09 01:59:50;;;;;;;11.57;5.80;;;17.70;36.90;;;;;;5033962;28;20430;-69
2022/07/09 02:02:15;;;;;;;13.10;6.10;;;17.60;36.20;;;;;;5028744;28;20447;-67
2022/07/09 02:04:41;;;;;;;10.13;6.00;;;17.60;37.10;;;;;;5034321;28;20176;-67
2022/07/09 02:07:07;;;;;;;10.50;6.00;;;17.80;36.90;;;;;;5035436;28;20862;-67
2022/07/09 02:09:32;;;;;;;14.03;5.50;;;17.80;36.60;;;;;;5034468;28;20632;-68
2022/07/09 02:11:58;;;;;;;12.47;5.83;;;18.00;35.40;;;;;;5034859;28;20208;-68
2022/07/09 02:14:24;;;;;;;14.17;5.50;;;17.90;36.40;;;;;;5034201;28;20272;-67
2022/07/09 02:16:50;;;;;;;11.40;6.00;;;18.10;35.60;;;;;;5034344;28;20204;-67
2022/07/09 02:19:15;;;;;;;11.80;6.13;;;18.20;34.40;;;;;;5051766;28;20513;-67
2022/07/09 02:21:41;;;;;;;12.47;5.30;;;18.20;34.60;;;;;;5044796;28;20250;-67
2022/07/09 02:24:07;;;;;;;10.87;6.13;;;18.30;35.20;;;;;;5040347;28;20203;-67
2022/07/09 02:26:33;;;;;;;13.03;5.90;;;18.00;35.70;;;;;;5034455;28;20265;-68
2022/07/09 02:28:59;;;;;;;10.50;5.50;;;17.80;36.70;;;;;;5034184;28;20432;-67
2022/07/09 02:31:26;;;;;;;13.17;6.27;;;17.40;37.30;;;;;;5033494;28;20500;-68
2022/07/09 02:33:52;;;;;;;14.83;6.80;;;17.40;38.40;;;;;;5034313;28;20194;-68
2022/07/09 02:36:17;;;;;;;8.23;5.73;;;17.40;37.60;;;;;;5033157;28;20508;-67
2022/07/09 02:38:43;;;;;;;9.80;6.43;;;17.60;37.20;;;;;;5033903;28;20508;-67
2022/07/09 02:41:09;;;;;;;15.00;6.30;;;17.70;37.40;;;;;;5031471;28;20181;-68
2022/07/09 02:43:34;;;;;;;10.33;5.43;;;17.80;36.30;;;;;;5027197;28;21929;-67
2022/07/09 02:46:00;;;;;;;8.20;5.43;;;17.70;36.70;;;;;;5036232;28;20694;-68
2022/07/09 02:48:26;;;;;;;9.77;5.70;;;17.80;36.80;;;;;;5033855;28;20256;-67
2022/07/09 02:50:52;;;;;;;10.17;5.70;;;17.80;37.30;;;;;;5033298;28;20566;-67
2022/07/09 02:53:18;;;;;;;11.10;5.50;;;17.70;37.00;;;;;;5032605;28;20193;-67
2022/07/09 02:55:44;;;;;;;9.20;5.97;;;17.60;36.90;;;;;;5033948;28;20436;-67
2022/07/09 02:58:10;;;;;;;7.97;6.33;;;17.60;37.20;;;;;;5024564;28;20458;-68
2022/07/09 03:00:36;;;;;;;13.60;6.47;;;17.60;37.80;;;;;;5033350;28;20415;-67
2022/07/09 03:03:02;;;;;;;17.20;6.80;;;17.40;37.80;;;;;;5033030;28;20427;-67
2022/07/09 03:05:28;;;;;;;11.50;6.60;;;17.30;37.50;;;;;;5032571;28;20436;-68
2022/07/09 03:07:53;;;;;;;16.33;7.87;;;17.20;37.80;;;;;;5033465;28;20240;-67
2022/07/09 03:10:19;;;;;;;18.33;9.10;;;17.00;38.10;;;;;;5033407;28;20204;-67
2022/07/09 03:12:44;;;;;;;15.30;8.57;;;16.90;38.80;;;;;;5032766;28;20858;-67
2022/07/09 03:15:14;;;;;;;12.20;7.77;;;16.90;38.80;;;;;;5032060;28;20209;-69
2022/07/09 03:17:40;;;;;;;11.00;7.13;;;16.90;38.80;;;;;;5033766;28;20466;-68
2022/07/09 03:20:06;;;;;;;10.57;6.40;;;16.90;38.80;;;;;;5033192;28;20403;-69
2022/07/09 03:22:31;;;;;;;13.23;6.50;;;16.90;38.80;;;;;;5031872;28;20591;-69
2022/07/09 03:24:57;;;;;;;14.47;7.23;;;17.00;38.90;;;;;;5032035;28;20416;-67
2022/07/09 03:27:22;;;;;;;13.87;6.23;;;16.90;38.80;;;;;;5039887;28;20227;-67
2022/07/09 03:29:48;;;;;;;10.70;6.23;;;16.80;38.70;;;;;;5032326;28;20226;-68
2022/07/09 03:32:14;;;;;;;10.23;6.80;;;16.70;39.20;;;;;;5032267;28;20204;-69
2022/07/09 03:34:40;;;;;;;11.83;6.80;;;16.90;39.70;;;;;;5032737;28;20179;-67
2022/07/09 03:37:05;;;;;;;13.80;6.90;;;16.90;38.80;;;;;;5032169;28;20258;-67
2022/07/09 03:39:31;;;;;;;9.90;6.27;;;16.90;38.30;;;;;;5020979;28;20435;-68
2022/07/09 03:41:57;;;;;;;15.70;6.60;;;16.90;38.40;;;;;;5032169;28;20764;-67
2022/07/09 03:44:22;;;;;;;10.87;6.57;;;16.70;38.60;;;;;;5032470;28;20208;-68
2022/07/09 03:46:48;;;;;;;15.77;7.63;;;16.70;38.60;;;;;;5032754;28;20285;-67
2022/07/09 03:49:14;;;;;;;12.73;8.00;;;16.80;38.70;;;;;;5030320;28;20242;-67
2022/07/09 03:51:39;;;;;;;11.20;6.77;;;16.80;39.80;;;;;;5031951;28;20212;-67
2022/07/09 03:54:05;;;;;;;13.00;7.00;;;16.90;39.40;;;;;;5032296;28;20183;-67
2022/07/09 03:56:30;;;;;;;13.40;6.77;;;16.90;38.80;;;;;;5032482;28;20199;-68
2022/07/09 03:58:56;;;;;;;15.93;6.90;;;17.00;39.30;;;;;;5031494;28;20655;-67
2022/07/09 04:01:22;;;;;;;16.10;7.63;;;17.00;38.90;;;;;;5031115;28;20173;-67
2022/07/09 04:03:47;;;;;;;18.20;8.30;;;16.90;38.80;;;;;;5031826;28;20192;-67
2022/07/09 04:06:13;;;;;;;12.17;8.03;;;16.80;39.00;;;;;;5032319;28;20176;-68
2022/07/09 04:08:39;;;;;;;12.60;7.70;;;16.70;38.90;;;;;;5032336;28;20411;-68
2022/07/09 04:11:04;;;;;;;13.13;7.40;;;16.80;40.00;;;;;;5031167;28;20188;-68
2022/07/09 04:13:30;;;;;;;12.90;8.33;;;16.90;39.50;;;;;;5031806;28;20200;-67
2022/07/09 04:15:56;;;;;;;18.63;9.00;;;17.00;39.50;;;;;;5023264;28;20199;-67
2022/07/09 04:18:21;;;;;;;14.03;7.60;;;17.00;38.90;;;;;;5005841;28;20610;-68
2022/07/09 04:20:47;;;;;;;13.63;7.23;;;17.00;39.20;;;;;;5030925;28;20211;-69
2022/07/09 04:23:12;;;;;;;10.50;7.03;;;17.00;39.10;;;;;;5031132;28;20654;-67
2022/07/09 04:25:38;;;;;;;12.60;7.57;;;17.00;40.20;;;;;;5030407;28;20571;-67
2022/07/09 04:28:05;;;;;;;15.40;7.00;;;17.00;40.60;;;;;;5021064;28;20272;-68
2022/07/09 04:30:31;;;;;;;12.43;7.10;;;16.90;40.80;;;;;;5020158;28;20279;-67
2022/07/09 04:32:56;;;;;;;12.50;6.43;;;16.80;41.20;;;;;;5033707;28;20530;-69
2022/07/09 04:35:22;;;;;;;11.13;7.60;;;17.10;41.00;;;;;;5031583;28;20420;-69
2022/07/09 04:37:48;;;;;;;11.10;6.87;;;17.10;40.30;;;;;;5031754;28;20222;-67
2022/07/09 04:40:13;;;;;;;13.20;6.70;;;17.20;40.00;;;;;;5031709;28;20219;-67
2022/07/09 04:42:39;;;;;;;13.83;6.23;;;17.30;39.10;;;;;;5029689;28;20848;-68
2022/07/09 04:45:05;;;;;;;12.13;6.53;;;17.20;39.10;;;;;;5031436;28;20169;-67
2022/07/09 04:47:31;;;;;;;11.50;6.77;;;17.30;39.10;;;;;;5030909;28;20176;-67
2022/07/09 04:49:56;;;;;;;11.83;7.00;;;17.30;39.10;;;;;;5031461;28;20783;-69
2022/07/09 04:52:26;;;;;;;13.13;8.07;;;17.40;38.80;;;;;;5031703;28;20201;-69
2022/07/09 04:54:52;;;;;;;17.93;9.30;;;17.40;38.40;;;;;;5031366;28;20203;-67
2022/07/09 04:57:18;;;;;;;13.30;8.87;;;17.30;38.30;;;;;;5031255;28;20446;-68
2022/07/09 04:59:44;;;;;;;13.10;8.73;;;17.30;38.30;;;;;;5030631;28;20432;-67
2022/07/09 05:02:09;;;;;;;11.63;8.73;;;17.30;38.70;;;;;;5031206;28;20249;-68
2022/07/09 05:04:35;;;;;;;15.93;9.50;;;17.30;38.40;;;;;;5031362;28;20253;-70
2022/07/09 05:07:01;;;;;;;11.30;8.67;;;17.20;37.80;;;;;;5031004;28;20179;-67
2022/07/09 05:09:26;;;;;;;16.90;10.10;;;16.90;38.80;;;;;;5030531;28;20181;-68
2022/07/09 05:11:53;;;;;;;17.37;9.57;;;17.10;39.10;;;;;;5029608;28;20220;-69
2022/07/09 05:14:18;;;;;;;19.03;9.57;;;17.30;38.50;;;;;;5031977;28;20426;-70
2022/07/09 05:16:44;;;;;;;17.07;9.70;;;17.50;38.30;;;;;;5031161;28;20453;-69
2022/07/09 05:19:13;;;;;;;17.30;9.73;;;17.50;37.80;;;;;;5010855;28;20181;-69
2022/07/09 05:21:40;;;;;;;14.50;8.70;;;17.70;37.70;;;;;;5021277;28;20196;-69
2022/07/09 05:24:07;;;;;;;14.00;9.10;;;17.50;37.80;;;;;;5030769;28;20441;-69
2022/07/09 05:26:35;;;;;;;15.73;9.37;;;17.50;37.70;;;;;;5040286;28;20440;-69
2022/07/09 05:29:05;;;;;;;20.70;9.50;;;17.40;38.60;;;;;;5032571;28;20438;-69
2022/07/09 05:31:30;;;;;;;16.60;8.97;;;17.60;37.50;;;;;;5023771;28;20869;-69
2022/07/09 05:33:56;;;;;;;16.90;8.83;;;17.40;37.50;;;;;;5033051;28;20434;-69
2022/07/09 05:36:22;;;;;;;14.43;9.00;;;17.20;38.90;;;;;;5034914;28;22080;-70
2022/07/09 05:38:48;;;;;;;15.00;8.93;;;16.90;38.80;;;;;;5038620;28;20469;-69
2022/07/09 05:41:15;;;;;;;12.00;9.00;;;16.40;40.40;;;;;;5027575;28;20237;-69
2022/07/09 05:43:41;;;;;;;10.87;8.17;;;16.50;41.30;;;;;;5034656;28;20178;-69
2022/07/09 05:46:06;;;;;;;26.03;10.27;;;16.70;40.70;;;;;;5033848;28;20435;-68
2022/07/09 05:48:32;;;;;;;12.83;8.07;;;17.10;40.20;;;;;;5032885;28;20213;-67
2022/07/09 05:50:57;;;;;;;16.77;8.63;;;17.20;39.40;;;;;;5034319;28;20181;-68
2022/07/09 05:53:23;;;;;;;12.47;8.00;;;17.30;39.20;;;;;;5029640;28;20196;-67
2022/07/09 05:55:49;;;;;;;20.03;8.80;;;17.00;39.30;;;;;;5014592;28;20482;-67
2022/07/09 05:58:15;;;;;;;21.03;7.90;;;17.10;39.10;;;;;;5034245;28;20303;-68
2022/07/09 06:00:41;;;;;;;12.20;8.03;;;17.60;38.60;;;;;;5035454;28;20216;-67
2022/07/09 06:03:07;;;;;;;14.63;8.43;;;17.70;39.50;;;;;;5030021;28;20475;-68
2022/07/09 06:05:32;;;;;;;9.27;7.03;;;17.50;39.30;;;;;;5026531;28;20431;-68
2022/07/09 06:07:58;;;;;;;13.87;7.00;;;17.80;38.60;;;;;;5027835;28;20638;-68
2022/07/09 06:10:24;;;;;;;13.80;6.90;;;17.70;39.50;;;;;;5029296;28;20643;-69
2022/07/09 06:12:50;;;;;;;14.27;7.00;;;17.60;39.40;;;;;;5033546;28;20225;-68
2022/07/09 06:15:15;;;;;;;12.90;6.97;;;17.40;39.20;;;;;;5024998;28;20435;-68
2022/07/09 06:17:41;;;;;;;16.27;7.53;;;17.50;39.70;;;;;;5033559;28;20677;-67
2022/07/09 06:20:07;;;;;;;20.43;7.20;;;17.30;39.50;;;;;;5032124;28;20173;-67
2022/07/09 06:22:33;;;;;;;13.27;7.27;;;17.60;40.70;;;;;;5027787;28;20211;-68
2022/07/09 06:24:59;;;;;;;11.77;7.43;;;18.20;38.00;;;;;;5033109;28;20439;-68
2022/07/09 06:27:24;;;;;;;12.30;7.70;;;18.70;38.30;;;;;;5031548;28;20196;-67
2022/07/09 06:29:50;;;;;;;11.90;8.40;;;18.90;36.40;;;;;;5025839;28;20681;-68
2022/07/09 06:32:16;;;;;;;13.00;8.70;;;18.70;36.30;;;;;;5029982;28;20204;-69
2022/07/09 06:34:41;;;;;;;16.83;8.10;;;18.50;37.50;;;;;;5027674;28;20664;-68
2022/07/09 06:37:07;;;;;;;12.63;8.77;;;18.20;36.90;;;;;;5029953;28;20681;-67
2022/07/09 06:39:45;;;;;;;13.97;8.63;;;18.20;37.00;;;;;;5026811;28;20696;-69
2022/07/09 06:42:13;;;;;;;20.00;8.97;;;18.00;37.90;;;;;;5032552;28;20224;-67
2022/07/09 06:44:39;;;;;;;11.87;8.30;;;18.00;37.50;;;;;;5023272;28;20438;-69
2022/07/09 06:47:05;;;;;;;20.53;8.63;;;18.50;37.10;;;;;;5013246;28;20442;-67
2022/07/09 06:49:31;;;;;;;16.40;6.90;;;18.40;36.60;;;;;;5017289;28;20441;-67
2022/07/09 06:51:57;;;;;;;19.23;7.20;;;18.50;36.50;;;;;;5028218;28;20470;-67
2022/07/09 06:54:23;;;;;;;15.47;6.83;;;18.40;36.30;;;;;;5034700;28;20932;-68
2022/07/09 06:56:49;;;;;;;12.03;7.17;;;18.70;35.50;;;;;;5024980;28;20469;-68
2022/07/09 06:59:15;;;;;;;10.30;6.40;;;18.80;35.40;;;;;;5033262;28;20442;-67
2022/07/09 07:01:40;;;;;;;13.80;6.13;;;19.00;34.70;;;;;;5026577;28;20711;-67
2022/07/09 07:04:06;;;;;;;12.37;5.90;;;19.00;34.50;;;;;;5030967;28;20205;-67
2022/07/09 07:06:32;;;;;;;10.80;5.40;;;19.30;33.90;;;;;;5033828;28;20198;-68
2022/07/09 07:08:58;;;;;;;8.73;5.50;;;18.80;34.90;;;;;;5024718;28;20439;-67
2022/07/09 07:11:24;;;;;;;15.70;5.50;;;18.60;35.10;;;;;;5022206;28;20278;-67
2022/07/09 07:13:50;;;;;;;10.47;5.43;;;19.20;34.10;;;;;;5020565;28;20513;-67
2022/07/09 07:16:16;;;;;;;12.33;5.33;;;20.00;33.60;;;;;;5031324;28;20438;-67
2022/07/09 07:18:42;;;;;;;10.30;5.80;;;20.50;33.30;;;;;;5024240;28;20490;-67
2022/07/09 07:21:07;;;;;;;14.30;5.73;;;20.90;31.90;;;;;;5027788;28;20578;-67
2022/07/09 07:23:33;;;;;;;13.30;5.13;;;21.10;30.40;;;;;;5031043;28;20925;-67
2022/07/09 07:25:59;;;;;;;9.27;5.20;;;21.10;30.70;;;;;;5031242;28;20199;-68
2022/07/09 07:28:25;;;;;;;12.17;5.33;;;21.50;30.90;;;;;;5022432;28;20656;-67
2022/07/09 07:30:51;;;;;;;10.60;4.90;;;21.50;30.90;;;;;;5032791;28;20430;-64
2022/07/09 07:33:16;;;;;;;8.00;5.10;;;21.40;30.10;;;;;;5032642;28;20193;-66
2022/07/09 07:35:44;;;;;;;12.77;4.70;;;21.00;30.00;;;;;;5032492;28;20628;-68
2022/07/09 07:38:09;;;;;;;11.43;5.20;;;21.10;30.90;;;;;;5033580;28;20644;-66
2022/07/09 07:40:36;;;;;;;8.63;4.80;;;21.50;29.40;;;;;;5032789;28;20451;-67
2022/07/09 07:43:02;;;;;;;13.20;4.97;;;22.00;28.60;;;;;;5032097;28;20599;-67
2022/07/09 07:45:28;;;;;;;19.43;4.70;;;21.90;28.10;;;;;;5032489;28;21168;-67
2022/07/09 07:47:54;;;;;;;10.10;4.30;;;22.10;28.30;;;;;;5032818;28;20432;-67
2022/07/09 07:50:23;;;;;;;8.17;4.67;;;22.40;28.10;;;;;;5032304;28;20191;-67
2022/07/09 07:52:49;;;;;;;13.23;4.90;;;22.60;27.80;;;;;;5050277;28;20442;-67
2022/07/09 07:55:15;;;;;;;6.27;4.47;;;22.90;26.30;;;;;;5048815;28;20441;-67
2022/07/09 07:57:41;;;;;;;12.17;5.00;;;22.80;26.90;;;;;;5051976;28;20472;-67
2022/07/09 08:00:07;;;;;;;5.40;3.90;;;23.10;25.80;;;;;;5052174;28;20418;-67
2022/07/09 08:02:34;;;;;;;12.30;4.47;;;23.10;25.90;;;;;;5051469;28;20190;-67
2022/07/09 08:05:00;;;;;;;9.40;4.67;;;23.00;26.20;;;;;;5041961;28;20459;-67
2022/07/09 08:07:25;;;;;;;12.67;5.10;;;22.80;26.30;;;;;;5036848;28;20463;-67
2022/07/09 08:09:51;;;;;;;10.20;4.87;;;22.20;27.50;;;;;;5032151;28;20957;-67
2022/07/09 08:12:17;;;;;;;7.37;4.20;;;21.50;27.10;;;;;;5031446;28;20224;-67
2022/07/09 08:14:42;;;;;;;15.20;4.93;;;21.90;27.30;;;;;;5031783;28;20184;-67
2022/07/09 08:17:08;;;;;;;14.70;5.10;;;21.80;26.90;;;;;;5032893;28;20196;-67
2022/07/09 08:19:34;;;;;;;12.30;5.63;;;21.70;27.80;;;;;;5029483;28;20181;-67
2022/07/09 08:21:59;;;;;;;11.37;5.37;;;21.70;27.40;;;;;;5031041;28;20200;-67
2022/07/09 08:24:26;;;;;;;12.10;4.80;;;21.60;27.10;;;;;;5031549;28;20188;-68
2022/07/09 08:26:52;;;;;;;10.40;4.87;;;22.00;27.40;;;;;;5031916;28;20955;-67
2022/07/09 08:29:17;;;;;;;10.60;4.90;;;22.20;25.30;;;;;;5032561;28;20516;-67
2022/07/09 08:31:43;;;;;;;18.27;4.53;;;22.60;25.20;;;;;;5031281;28;20239;-67
2022/07/09 08:34:08;;;;;;;14.47;4.30;;;23.00;24.80;;;;;;5031444;28;20295;-67
2022/07/09 08:36:34;;;;;;;8.53;4.10;;;23.20;23.30;;;;;;5013751;28;20214;-67
2022/07/09 08:39:00;;;;;;;13.40;4.50;;;23.20;23.90;;;;;;5032409;28;20187;-67
2022/07/09 08:41:25;;;;;;;10.53;3.93;;;23.60;24.20;;;;;;5030730;28;20658;-67
2022/07/09 08:43:52;;;;;;;7.23;3.60;;;23.60;23.90;;;;;;5031126;28;20164;-67
2022/07/09 08:46:18;;;;;;;6.27;4.03;;;23.10;24.90;;;;;;5030567;28;20183;-68
2022/07/09 08:48:45;;;;;;;11.23;4.80;;;22.50;25.40;;;;;;5031029;28;20415;-68
2022/07/09 08:51:11;;;;;;;11.90;4.10;;;22.10;26.20;;;;;;5047719;28;20945;-67
2022/07/09 08:53:42;;;;;;;6.87;4.30;;;22.00;26.80;;;;;;5040909;28;20484;-68
2022/07/09 08:56:08;;;;;;;8.80;3.70;;;22.90;26.50;;;;;;5032039;28;20435;-68
2022/07/09 08:58:34;;;;;;;9.30;3.80;;;23.70;24.40;;;;;;5031052;28;20495;-67
2022/07/09 09:01:00;;;;;;;7.17;3.80;;;24.10;23.90;;;;;;5012702;28;20507;-67
2022/07/09 09:03:26;;;;;;;4.57;3.47;;;24.40;24.20;;;;;;5030236;28;20203;-67
2022/07/09 09:06:09;;;;;;;5.97;3.47;;;24.60;23.90;;;;;;5013316;28;20183;-67
2022/07/09 09:08:37;;;;;;;7.83;3.87;;;24.70;23.80;;;;;;5011462;28;20421;-67
2022/07/09 09:11:08;;;;;;;9.70;3.50;;;24.50;23.10;;;;;;5010948;28;20913;-67
2022/07/09 09:13:40;;;;;;;8.30;3.77;;;23.70;24.40;;;;;;5010827;28;20945;-67
2022/07/09 09:16:07;;;;;;;10.23;3.70;;;23.10;25.40;;;;;;5009845;28;20429;-67
2022/07/09 09:18:39;;;;;;;5.47;3.13;;;23.40;26.20;;;;;;5029665;28;20497;-66
2022/07/09 09:21:06;;;;;;;6.60;3.37;;;24.20;25.30;;;;;;5013112;28;20433;-66
2022/07/09 09:23:52;;;;;;;9.03;3.50;;;23.50;25.30;;;;;;5030435;28;20928;-67
2022/07/09 09:26:25;;;;;;;11.43;3.47;;;23.20;25.60;;;;;;5030911;28;20407;-66
2022/07/09 09:28:55;;;;;;;5.13;3.50;;;23.50;25.50;;;;;;5032027;28;20429;-67
2022/07/09 09:31:35;;;;;;;6.90;3.60;;;23.60;25.10;;;;;;5030352;28;20836;-67
2022/07/09 09:34:13;;;;;;;6.60;3.50;;;23.30;25.50;;;;;;5030304;28;20462;-67
2022/07/09 09:36:43;;;;;;;7.67;3.23;;;24.00;24.80;;;;;;5030604;28;20960;-67
2022/07/09 09:39:21;;;;;;;5.23;3.43;;;24.60;25.60;;;;;;5031808;28;20945;-69
2022/07/09 09:41:51;;;;;;;5.67;3.47;;;24.80;23.60;;;;;;5030022;28;20446;-67
2022/07/09 09:44:37;;;;;;;5.73;3.37;;;24.30;24.70;;;;;;5030420;28;20897;-67
2022/07/09 09:47:04;;;;;;;7.40;3.30;;;24.80;23.90;;;;;;5030456;28;20407;-67
2022/07/09 09:49:30;;;;;;;9.23;3.27;;;24.80;23.30;;;;;;5038016;28;20932;-67
2022/07/09 09:52:06;;;;;;;8.20;3.60;;;24.60;26.40;;;;;;5049801;28;20425;-67
2022/07/09 09:54:33;;;;;;;9.67;3.20;;;25.00;22.30;;;;;;5050468;28;20163;-67
2022/07/09 09:56:59;;;;;;;5.60;2.80;;;24.10;23.80;;;;;;5050116;28;20454;-67
2022/07/09 09:59:25;;;;;;;6.33;3.27;;;24.20;22.80;;;;;;5048450;28;20937;-67
2022/07/09 10:01:51;;;;;;;6.80;3.53;;;24.20;23.90;;;;;;5036332;28;20533;-67
2022/07/09 10:04:18;;;;;;;8.83;4.27;;;25.10;23.10;;;;;;5049951;28;20176;-67
2022/07/09 10:06:44;;;;;;;7.60;3.40;;;24.90;23.00;;;;;;5050222;28;20422;-67
2022/07/09 10:09:14;;;;;;;6.17;3.20;;;24.70;22.90;;;;;;5050132;28;20410;-67
2022/07/09 10:11:47;;;;;;;6.90;3.10;;;24.40;23.30;;;;;;5034839;28;20518;-67
2022/07/09 10:14:24;;;;;;;6.27;3.10;;;24.70;23.40;;;;;;5029977;28;20435;-66
2022/07/09 10:16:51;;;;;;;14.27;3.20;;;24.00;24.00;;;;;;5034055;28;20539;-66
2022/07/09 10:19:26;;;;;;;10.13;3.30;;;23.80;23.90;;;;;;5034130;28;20780;-67
2022/07/09 10:22:01;;;;;;;6.07;2.97;;;24.00;23.90;;;;;;5033541;28;20810;-67
2022/07/09 10:24:31;;;;;;;8.97;3.50;;;24.00;23.40;;;;;;5034924;28;20515;-66
2022/07/09 10:27:10;;;;;;;6.50;2.87;;;24.80;23.30;;;;;;5034020;28;20410;-66
2022/07/09 10:29:52;;;;;;;4.83;2.80;;;24.90;22.70;;;;;;5033934;28;20455;-68
2022/07/09 10:32:45;;;;;;;3.90;2.70;;;25.80;21.60;;;;;;5051414;28;20461;-67
2022/07/09 10:35:11;;;;;;;3.30;2.80;;;26.50;21.40;;;;;;5049781;28;20505;-67
2022/07/09 10:37:43;;;;;;;4.03;2.70;;;26.40;21.70;;;;;;5053555;28;20540;-67
2022/07/09 10:40:09;;;;;;;6.50;3.47;;;26.60;19.60;;;;;;5053691;28;20246;-67
2022/07/09 10:42:35;;;;;;;5.17;2.47;;;25.30;21.00;;;;;;5036787;28;20885;-67
2022/07/09 10:45:00;;;;;;;6.40;2.97;;;23.80;23.30;;;;;;5033236;28;20415;-68
2022/07/09 10:47:38;;;;;;;6.23;2.70;;;23.70;24.40;;;;;;5033515;28;20271;-67
2022/07/09 10:50:06;;;;;;;7.53;3.10;;;23.90;23.20;;;;;;5033458;28;20188;-67
2022/07/09 10:52:33;;;;;;;6.70;2.80;;;25.00;24.90;;;;;;5033717;28;20879;-66
2022/07/09 10:54:59;;;;;;;6.07;2.90;;;24.50;22.70;;;;;;5033359;28;20414;-68
2022/07/09 10:57:24;;;;;;;5.47;2.60;;;24.90;21.60;;;;;;5033308;28;20823;-66
2022/07/09 10:59:50;;;;;;;5.20;2.53;;;24.30;21.80;;;;;;5015492;28;20183;-67
2022/07/09 11:02:20;;;;;;;3.00;2.30;;;25.10;20.50;;;;;;5034245;28;20199;-67
2022/07/09 11:04:51;;;;;;;3.87;2.20;;;25.30;19.90;;;;;;5052339;28;20646;-67
2022/07/09 11:07:21;;;;;;;5.37;2.30;;;26.20;20.90;;;;;;5051498;28;20492;-67
2022/07/09 11:09:47;;;;;;;4.50;2.50;;;25.70;19.60;;;;;;5051406;28;20540;-68
2022/07/09 11:12:17;;;;;;;4.37;2.73;;;24.90;21.40;;;;;;5051351;28;20505;-67
2022/07/09 11:14:45;;;;;;;9.93;2.63;;;25.60;20.40;;;;;;5051177;28;20650;-67
2022/07/09 11:17:15;;;;;;;4.63;2.83;;;26.80;21.60;;;;;;5053192;28;20480;-68
2022/07/09 11:19:40;;;;;;;3.70;2.37;;;27.40;18.10;;;;;;5052975;28;20413;-68
2022/07/09 11:22:06;;;;;;;2.77;2.30;;;28.30;17.60;;;;;;5052561;28;20430;-68
2022/07/09 11:24:31;;;;;;;4.43;2.60;;;28.80;19.50;;;;;;5042624;28;20183;-68
2022/07/09 11:27:05;;;;;;;5.70;2.27;;;29.10;18.60;;;;;;5032181;28;20219;-68
2022/07/09 11:29:32;;;;;;;4.20;2.40;;;29.50;17.90;;;;;;5032411;28;20207;-69
2022/07/09 11:31:57;;;;;;;2.90;2.60;;;29.60;15.20;;;;;;5032176;28;20806;-69
2022/07/09 11:34:23;;;;;;;4.70;2.70;;;29.00;16.70;;;;;;5033549;28;20418;-69
2022/07/09 11:36:56;;;;;;;2.60;2.27;;;28.20;16.90;;;;;;5032554;28;20200;-69
2022/07/09 11:39:26;;;;;;;3.47;2.40;;;28.20;17.70;;;;;;5032553;28;20215;-69
2022/07/09 11:41:52;;;;;;;7.00;2.67;;;29.30;18.10;;;;;;5032450;28;20508;-69
2022/07/09 11:44:23;;;;;;;4.67;2.20;;;29.80;14.50;;;;;;5032446;28;20403;-69
2022/07/09 11:47:10;;;;;;;5.10;2.60;;;29.50;14.80;;;;;;5033871;28;20438;-69
2022/07/09 11:49:43;;;;;;;5.33;2.40;;;29.70;15.10;;;;;;5032304;28;20993;-69
2022/07/09 11:52:19;;;;;;;6.70;4.80;;;30.40;15.60;;;;;;5032140;28;20431;-68
2022/07/09 11:55:06;;;;;;;3.93;2.57;;;30.00;13.80;;;;;;5032021;28;20415;-69
2022/07/09 11:57:34;;;;;;;5.07;2.53;;;29.30;15.70;;;;;;5049994;28;20462;-69
2022/07/09 12:00:00;;;;;;;5.63;2.73;;;30.40;16.20;;;;;;5052401;28;20414;-69
2022/07/09 12:02:33;;;;;;;3.23;2.40;;;31.00;15.80;;;;;;5051710;28;20434;-69
2022/07/09 12:05:04;;;;;;;4.47;2.23;;;31.30;15.30;;;;;;5052197;28;20386;-69
2022/07/09 12:07:30;;;;;;;3.50;2.30;;;30.60;13.20;;;;;;5039690;28;20430;-69
2022/07/09 12:10:04;;;;;;;3.93;2.63;;;29.70;15.50;;;;;;5031934;28;20418;-69
2022/07/09 12:12:31;;;;;;;4.60;3.10;;;28.40;16.60;;;;;;5031677;28;20643;-69
2022/07/09 12:14:57;;;;;;;2.40;2.20;;;28.00;18.10;;;;;;5014078;28;20430;-68
2022/07/09 12:17:29;;;;;;;6.50;2.83;;;28.70;17.80;;;;;;5036975;28;20458;-68
2022/07/09 12:19:56;;;;;;;4.40;2.87;;;27.90;17.40;;;;;;5051844;28;20910;-69
2022/07/09 12:22:25;;;;;;;3.57;2.60;;;28.20;19.00;;;;;;5033417;28;20434;-69
2022/07/09 12:24:53;;;;;;;4.90;2.63;;;28.80;17.20;;;;;;5051544;28;20966;-69
2022/07/09 12:27:22;;;;;;;7.20;2.50;;;29.80;16.70;;;;;;5051158;28;20909;-70
2022/07/09 12:29:48;;;;;;;4.30;2.40;;;30.60;16.00;;;;;;5050922;28;20635;-69
2022/07/09 12:32:14;;;;;;;7.90;2.90;;;28.90;15.90;;;;;;5048508;28;20573;-69
2022/07/09 12:34:39;;;;;;;3.67;2.60;;;28.40;16.70;;;;;;5051444;28;20655;-69
2022/07/09 12:37:05;;;;;;;3.97;2.57;;;29.20;18.80;;;;;;5051462;28;20222;-69
2022/07/09 12:39:31;;;;;;;2.97;2.30;;;29.30;17.30;;;;;;5051671;28;20228;-69